createdAt,value
2018-07-31T00:00:25.448Z,101601.00
2018-07-31T00:03:32.237Z,101601.00
2018-07-31T00:06:38.971Z,101603.00
2018-07-31T00:09:45.468Z,101605.00
2018-07-31T00:12:52.588Z,101593.00
2018-07-31T00:15:59.360Z,101593.00
2018-07-31T00:19:06.759Z,101593.00
2018-07-31T00:22:13.504Z,101597.00
2018-07-31T00:25:20.256Z,101595.00
2018-07-31T00:28:26.741Z,101595.00
2018-07-31T00:31:33.508Z,101595.00
2018-07-31T00:34:40.218Z,101597.00
2018-07-31T00:37:46.762Z,101589.00
2018-07-31T00:40:53.421Z,101589.00
2018-07-31T00:43:59.962Z,101593.00
2018-07-31T00:47:06.843Z,101591.00
2018-07-31T00:50:13.579Z,101585.00
2018-07-31T00:53:20.283Z,101580.00
2018-07-31T00:56:27.140Z,101578.00
2018-07-31T00:59:33.649Z,101572.00
2018-07-31T01:02:40.649Z,101574.00
2018-07-31T01:05:47.409Z,101576.00
2018-07-31T01:08:53.852Z,101570.00
2018-07-31T01:12:00.565Z,101570.00
2018-07-31T01:15:07.373Z,101568.00
2018-07-31T01:18:13.785Z,101570.00
2018-07-31T01:21:20.477Z,101568.00
2018-07-31T01:24:27.223Z,101570.00
2018-07-31T01:27:33.675Z,101562.00
2018-07-31T01:30:40.381Z,101562.00
2018-07-31T01:33:47.462Z,101562.00
2018-07-31T01:36:53.977Z,101562.00
2018-07-31T01:40:01.047Z,101558.00
2018-07-31T01:43:08.165Z,101547.00
2018-07-31T01:46:14.889Z,101549.00
2018-07-31T01:49:21.623Z,101543.00
2018-07-31T01:52:28.344Z,101540.00
2018-07-31T01:55:35.331Z,101536.00
2018-07-31T01:58:42.220Z,101540.00
2018-07-31T02:01:48.952Z,101534.00
2018-07-31T02:04:55.704Z,101532.00
2018-07-31T02:08:02.419Z,101530.00
2018-07-31T02:11:08.957Z,101528.00
2018-07-31T02:14:15.772Z,101526.00
2018-07-31T02:17:22.489Z,101520.00
2018-07-31T02:20:28.546Z,101522.00
2018-07-31T02:23:35.224Z,101520.00
2018-07-31T02:26:42.287Z,101518.00
2018-07-31T02:29:54.183Z,101518.00
2018-07-31T02:33:00.598Z,101514.00
2018-07-31T02:36:07.665Z,101518.00
2018-07-31T02:39:14.457Z,101512.00
2018-07-31T02:42:21.206Z,101510.00
2018-07-31T02:45:27.704Z,101510.00
2018-07-31T02:48:34.765Z,101508.00
2018-07-31T02:51:41.276Z,101508.00
2018-07-31T02:54:48.193Z,101502.00
2018-07-31T02:57:55.226Z,101500.00
2018-07-31T03:01:02.273Z,101502.00
2018-07-31T03:04:09.081Z,101504.00
2018-07-31T03:07:15.841Z,101506.00
2018-07-31T03:10:22.631Z,101508.00
2018-07-31T03:13:29.176Z,101502.00
2018-07-31T03:16:35.949Z,101498.00
2018-07-31T03:19:42.775Z,101496.00
2018-07-31T03:22:49.878Z,101494.00
2018-07-31T03:25:56.613Z,101488.00
2018-07-31T03:29:03.238Z,101490.00
2018-07-31T03:32:10.150Z,101490.00
2018-07-31T03:35:16.376Z,101490.00
2018-07-31T03:38:23.039Z,101490.00
2018-07-31T03:41:29.563Z,101492.00
2018-07-31T03:44:36.724Z,101490.00
2018-07-31T03:47:43.481Z,101488.00
2018-07-31T03:50:50.008Z,101488.00
2018-07-31T03:53:57.057Z,101488.00
2018-07-31T03:57:03.829Z,101490.00
2018-07-31T04:00:10.895Z,101490.00
2018-07-31T04:03:17.398Z,101487.00
2018-07-31T04:06:23.886Z,101485.00
2018-07-31T04:09:30.242Z,101483.00
2018-07-31T04:12:37.028Z,101479.00
2018-07-31T04:15:43.785Z,101479.00
2018-07-31T04:18:50.262Z,101483.00
2018-07-31T04:21:57.355Z,101479.00
2018-07-31T04:25:04.432Z,101477.00
2018-07-31T04:28:10.914Z,101477.00
2018-07-31T04:31:17.708Z,101475.00
2018-07-31T04:34:24.171Z,101471.00
2018-07-31T04:37:30.510Z,101473.00
2018-07-31T04:40:36.991Z,101475.00
2018-07-31T04:43:43.906Z,101477.00
2018-07-31T04:46:51.056Z,101475.00
2018-07-31T04:49:57.538Z,101475.00
2018-07-31T04:53:04.267Z,101475.00
2018-07-31T04:56:10.829Z,101479.00
2018-07-31T04:59:17.949Z,101481.00
2018-07-31T05:02:24.505Z,101481.00
2018-07-31T05:05:31.587Z,101477.00
2018-07-31T05:08:38.660Z,101479.00
2018-07-31T05:11:45.460Z,101477.00
2018-07-31T05:14:52.229Z,101475.00
2018-07-31T05:17:58.981Z,101475.00
2018-07-31T05:21:05.464Z,101477.00
2018-07-31T05:24:12.255Z,101479.00
2018-07-31T05:27:18.669Z,101481.00
2018-07-31T05:30:25.438Z,101481.00
2018-07-31T05:33:32.188Z,101485.00
2018-07-31T05:36:38.968Z,101487.00
2018-07-31T05:39:45.707Z,101488.00
2018-07-31T05:42:52.763Z,101494.00
2018-07-31T05:45:59.915Z,101490.00
2018-07-31T05:49:07.029Z,101487.00
2018-07-31T05:52:13.887Z,101488.00
2018-07-31T05:55:20.573Z,101494.00
2018-07-31T05:58:27.361Z,101496.00
2018-07-31T06:01:34.401Z,101496.00
2018-07-31T06:04:41.392Z,101496.00
2018-07-31T06:07:48.151Z,101494.00
2018-07-31T06:10:54.948Z,101492.00
2018-07-31T06:14:01.741Z,101496.00
2018-07-31T06:17:08.564Z,101496.00
2018-07-31T06:20:17.372Z,101496.00
2018-07-31T06:23:24.559Z,101498.00
2018-07-31T06:26:31.096Z,101502.00
2018-07-31T06:29:37.728Z,101504.00
2018-07-31T06:32:44.717Z,101502.00
2018-07-31T06:35:51.562Z,101502.00
2018-07-31T06:38:58.697Z,101506.00
2018-07-31T06:42:05.475Z,101506.00
2018-07-31T06:45:12.316Z,101510.00
2018-07-31T06:48:18.954Z,101512.00
2018-07-31T06:51:25.629Z,101522.00
2018-07-31T06:54:32.156Z,101516.00
2018-07-31T06:57:39.233Z,101508.00
2018-07-31T07:00:46.033Z,101508.00
2018-07-31T07:03:53.155Z,101506.00
2018-07-31T07:07:00.215Z,101508.00
2018-07-31T07:10:07.148Z,101512.00
2018-07-31T07:13:13.761Z,101514.00
2018-07-31T07:16:20.543Z,101514.00
2018-07-31T07:19:27.297Z,101516.00
2018-07-31T07:22:33.767Z,101518.00
2018-07-31T07:25:40.477Z,101510.00
2018-07-31T07:28:47.336Z,101514.00
2018-07-31T07:31:54.257Z,101512.00
2018-07-31T07:35:01.541Z,101508.00
2018-07-31T07:38:08.381Z,101508.00
2018-07-31T07:41:15.272Z,101510.00
2018-07-31T07:44:22.494Z,101506.00
2018-07-31T07:47:29.642Z,101496.00
2018-07-31T07:50:36.853Z,101498.00
2018-07-31T07:53:43.607Z,101500.00
2018-07-31T07:56:50.752Z,101500.00
2018-07-31T07:59:57.602Z,101492.00
2018-07-31T08:03:04.644Z,101494.00
2018-07-31T08:06:11.776Z,101483.00
2018-07-31T08:09:18.917Z,101483.00
2018-07-31T08:12:25.714Z,101479.00
2018-07-31T08:15:32.370Z,101483.00
2018-07-31T08:18:39.466Z,101487.00
2018-07-31T08:21:46.227Z,101481.00
2018-07-31T08:24:53.954Z,101485.00
2018-07-31T08:28:00.736Z,101481.00
2018-07-31T08:31:07.242Z,101485.00
2018-07-31T08:34:13.998Z,101485.00
2018-07-31T08:37:20.472Z,101487.00
2018-07-31T08:40:27.211Z,101483.00
2018-07-31T08:43:34.296Z,101487.00
2018-07-31T08:46:41.319Z,101487.00
2018-07-31T08:49:48.426Z,101481.00
2018-07-31T08:52:55.588Z,101481.00
2018-07-31T08:56:02.149Z,101485.00
2018-07-31T08:59:08.899Z,101481.00
2018-07-31T09:02:15.743Z,101481.00
2018-07-31T09:05:22.581Z,101481.00
2018-07-31T09:08:29.366Z,101477.00
2018-07-31T09:11:35.763Z,101473.00
2018-07-31T09:14:42.441Z,101479.00
2018-07-31T09:17:49.174Z,101473.00
2018-07-31T09:20:56.001Z,101471.00
2018-07-31T09:24:02.857Z,101469.00
2018-07-31T09:27:09.514Z,101465.00
2018-07-31T09:30:16.425Z,101471.00
2018-07-31T09:33:23.050Z,101473.00
2018-07-31T09:36:29.914Z,101473.00
2018-07-31T09:39:36.887Z,101467.00
2018-07-31T09:42:44.078Z,101473.00
2018-07-31T09:45:51.148Z,101477.00
2018-07-31T09:48:58.029Z,101473.00
2018-07-31T09:52:05.030Z,101475.00
2018-07-31T09:55:11.767Z,101477.00
2018-07-31T09:58:18.819Z,101481.00
2018-07-31T10:01:25.946Z,101479.00
2018-07-31T10:04:33.072Z,101475.00
2018-07-31T10:07:40.167Z,101475.00
2018-07-31T10:10:47.279Z,101483.00
2018-07-31T10:13:54.028Z,101477.00
2018-07-31T10:17:00.940Z,101481.00
2018-07-31T10:20:07.435Z,101479.00
2018-07-31T10:23:14.320Z,101477.00
2018-07-31T10:26:21.507Z,101479.00
2018-07-31T10:29:28.551Z,101479.00
2018-07-31T10:32:35.420Z,101475.00
2018-07-31T10:35:42.077Z,101473.00
2018-07-31T10:38:48.886Z,101473.00
2018-07-31T10:41:55.782Z,101471.00
2018-07-31T10:45:02.225Z,101473.00
2018-07-31T10:48:08.575Z,101473.00
2018-07-31T10:51:15.329Z,101473.00
2018-07-31T10:54:22.191Z,101473.00
2018-07-31T10:57:29.105Z,101473.00
2018-07-31T11:00:35.831Z,101469.00
2018-07-31T11:03:42.597Z,101471.00
2018-07-31T11:06:49.616Z,101467.00
2018-07-31T11:09:56.751Z,101467.00
2018-07-31T11:13:03.930Z,101461.00
2018-07-31T11:16:11.014Z,101463.00
2018-07-31T11:19:18.043Z,101467.00
2018-07-31T11:22:25.236Z,101461.00
2018-07-31T11:25:31.787Z,101465.00
2018-07-31T11:28:38.559Z,101457.00
2018-07-31T11:31:45.621Z,101461.00
2018-07-31T11:34:52.140Z,101457.00
2018-07-31T11:37:58.785Z,101457.00
2018-07-31T11:41:05.985Z,101453.00
2018-07-31T11:44:12.577Z,101459.00
2018-07-31T11:47:19.243Z,101455.00
2018-07-31T11:50:26.066Z,101459.00
2018-07-31T11:53:32.751Z,101457.00
2018-07-31T11:56:39.496Z,101453.00
2018-07-31T11:59:46.279Z,101455.00
2018-07-31T12:02:53.490Z,101455.00
2018-07-31T12:05:59.729Z,101455.00
2018-07-31T12:09:09.828Z,101461.00
2018-07-31T12:12:17.020Z,101461.00
2018-07-31T12:15:24.027Z,101465.00
2018-07-31T12:18:30.773Z,101461.00
2018-07-31T12:21:37.995Z,101463.00
2018-07-31T12:24:45.333Z,101469.00
2018-07-31T12:27:52.051Z,101471.00
2018-07-31T12:30:58.870Z,101473.00
2018-07-31T12:34:05.629Z,101477.00
2018-07-31T12:37:12.724Z,101475.00
2018-07-31T12:40:19.666Z,101475.00
2018-07-31T12:43:26.084Z,101475.00
2018-07-31T12:46:33.096Z,101473.00
2018-07-31T12:49:40.149Z,101473.00
2018-07-31T12:52:47.260Z,101469.00
2018-07-31T12:55:54.626Z,101465.00
2018-07-31T12:59:01.534Z,101463.00
2018-07-31T13:02:08.686Z,101467.00
2018-07-31T13:05:15.469Z,101463.00
2018-07-31T13:08:22.158Z,101459.00
2018-07-31T13:11:28.968Z,101455.00
2018-07-31T13:14:36.092Z,101451.00
2018-07-31T13:17:43.197Z,101449.00
2018-07-31T13:20:50.226Z,101449.00
2018-07-31T13:23:57.459Z,101453.00
2018-07-31T13:27:04.582Z,101453.00
2018-07-31T13:30:11.744Z,101457.00
2018-07-31T13:33:18.811Z,101449.00
2018-07-31T13:36:25.752Z,101447.00
2018-07-31T13:39:32.089Z,101455.00
2018-07-31T13:42:39.232Z,101449.00
2018-07-31T13:45:45.809Z,101453.00
2018-07-31T13:48:52.517Z,101441.00
2018-07-31T13:51:59.452Z,101440.00
2018-07-31T13:55:06.638Z,101436.00
2018-07-31T13:58:13.722Z,101436.00
2018-07-31T14:01:20.834Z,101441.00
2018-07-31T14:04:27.831Z,101441.00
2018-07-31T14:07:35.342Z,101440.00
2018-07-31T14:10:42.371Z,101441.00
2018-07-31T14:13:49.686Z,101436.00
2018-07-31T14:16:56.960Z,101434.00
2018-07-31T14:20:03.879Z,101438.00
2018-07-31T14:23:10.460Z,101436.00
2018-07-31T14:26:16.855Z,101443.00
2018-07-31T14:29:23.864Z,101440.00
2018-07-31T14:32:30.922Z,101440.00
2018-07-31T14:35:57.567Z,101440.00
2018-07-31T14:39:03.871Z,101443.00
2018-07-31T14:42:10.045Z,101440.00
2018-07-31T14:45:16.210Z,101438.00
2018-07-31T14:48:22.581Z,101438.00
2018-07-31T14:51:29.335Z,101434.00
2018-07-31T14:54:36.165Z,101434.00
2018-07-31T14:57:42.621Z,101436.00
2018-07-31T15:00:49.390Z,101441.00
2018-07-31T15:03:56.102Z,101443.00
2018-07-31T15:07:03.270Z,101445.00
2018-07-31T15:10:10.259Z,101440.00
2018-07-31T15:13:16.743Z,101440.00
2018-07-31T15:16:23.497Z,101447.00
2018-07-31T15:19:29.996Z,101447.00
2018-07-31T15:22:36.831Z,101453.00
2018-07-31T15:25:43.954Z,101447.00
2018-07-31T15:28:51.095Z,101453.00
2018-07-31T15:31:58.260Z,101445.00
2018-07-31T15:35:04.866Z,101449.00
2018-07-31T15:38:11.563Z,101447.00
2018-07-31T15:41:18.383Z,101447.00
2018-07-31T15:44:25.281Z,101445.00
2018-07-31T15:47:31.968Z,101451.00
2018-07-31T15:50:38.474Z,101451.00
2018-07-31T15:53:45.173Z,101455.00
2018-07-31T15:56:51.943Z,101457.00
2018-07-31T15:59:59.048Z,101457.00
2018-07-31T16:03:06.205Z,101455.00
2018-07-31T16:06:12.745Z,101459.00
2018-07-31T16:09:19.543Z,101463.00
2018-07-31T16:12:26.603Z,101465.00
2018-07-31T16:15:33.448Z,101465.00
2018-07-31T16:18:40.046Z,101469.00
2018-07-31T16:21:47.130Z,101461.00
2018-07-31T16:24:53.677Z,101461.00
2018-07-31T16:28:00.389Z,101467.00
2018-07-31T16:31:06.914Z,101475.00
2018-07-31T16:34:13.616Z,101481.00
2018-07-31T16:37:20.353Z,101487.00
2018-07-31T16:40:26.876Z,101481.00
2018-07-31T16:43:33.726Z,101488.00
2018-07-31T16:46:40.517Z,101506.00
2018-07-31T16:49:47.554Z,101518.00
2018-07-31T16:52:54.441Z,101524.00
2018-07-31T16:56:01.110Z,101532.00
2018-07-31T16:59:08.170Z,101542.00
2018-07-31T17:02:14.933Z,101549.00
2018-07-31T17:05:21.133Z,101574.00
2018-07-31T17:08:27.824Z,101587.00
2018-07-31T17:11:35.018Z,101589.00
2018-07-31T17:14:41.948Z,101593.00
2018-07-31T17:17:48.959Z,101601.00
2018-07-31T17:20:55.490Z,101603.00
2018-07-31T17:24:02.293Z,101611.00
2018-07-31T17:27:09.025Z,101621.00
2018-07-31T17:30:15.835Z,101627.00
2018-07-31T17:33:22.927Z,101627.00
2018-07-31T17:36:29.715Z,101640.00
2018-07-31T17:39:37.031Z,101642.00
2018-07-31T17:42:43.982Z,101646.00
2018-07-31T17:45:50.720Z,101656.00
2018-07-31T17:48:57.551Z,101664.00
2018-07-31T17:52:04.152Z,101668.00
2018-07-31T17:55:12.451Z,101678.00
2018-07-31T17:58:19.482Z,101680.00
2018-07-31T18:01:26.225Z,101686.00
2018-07-31T18:04:33.589Z,101689.00
2018-07-31T18:07:40.190Z,101697.00
2018-07-31T18:10:47.047Z,101705.00
2018-07-31T18:13:53.551Z,101713.00
2018-07-31T18:17:00.278Z,101721.00
2018-07-31T18:20:07.036Z,101729.00
2018-07-31T18:23:13.847Z,101727.00
2018-07-31T18:26:20.991Z,101725.00
2018-07-31T18:29:27.716Z,101738.00
2018-07-31T18:32:34.500Z,101750.00
2018-07-31T18:35:41.651Z,101756.00
2018-07-31T18:38:48.412Z,101758.00
2018-07-31T18:41:54.902Z,101762.00
2018-07-31T18:45:01.894Z,101766.00
2018-07-31T18:48:09.019Z,101768.00
2018-07-31T18:51:16.092Z,101780.00
2018-07-31T18:54:22.884Z,101784.00
2018-07-31T18:57:29.651Z,101789.00
2018-07-31T19:00:36.792Z,101793.00
2018-07-31T19:03:46.492Z,101797.00
2018-07-31T19:06:53.299Z,101797.00
2018-07-31T19:10:00.020Z,101807.00
2018-07-31T19:13:06.916Z,101807.00
2018-07-31T19:16:13.738Z,101801.00
2018-07-31T19:19:20.851Z,101805.00
2018-07-31T19:22:27.678Z,101807.00
2018-07-31T19:25:34.413Z,101818.00
2018-07-31T19:28:40.916Z,101822.00
2018-07-31T19:31:47.977Z,101833.00
2018-07-31T19:34:55.138Z,101830.00
2018-07-31T19:38:01.864Z,101833.00
2018-07-31T19:41:08.625Z,101830.00
2018-07-31T19:44:15.744Z,101824.00
2018-07-31T19:47:22.475Z,101837.00
2018-07-31T19:50:29.195Z,101841.00
2018-07-31T19:53:36.179Z,101841.00
2018-07-31T19:56:42.835Z,101845.00
2018-07-31T19:59:50.031Z,101849.00
2018-07-31T20:02:56.834Z,101839.00
2018-07-31T20:06:03.577Z,101845.00
2018-07-31T20:09:13.265Z,101857.00
2018-07-31T20:12:20.589Z,101859.00
2018-07-31T20:15:27.378Z,101863.00
2018-07-31T20:18:34.267Z,101869.00
2018-07-31T20:21:41.013Z,101871.00
2018-07-31T20:24:47.816Z,101878.00
2018-07-31T20:27:54.318Z,101884.00
2018-07-31T20:31:01.442Z,101884.00
2018-07-31T20:34:08.276Z,101886.00
2018-07-31T20:37:15.056Z,101884.00
2018-07-31T20:40:21.729Z,101888.00
2018-07-31T20:43:28.848Z,101902.00
2018-07-31T20:46:35.522Z,101904.00
2018-07-31T20:49:42.340Z,101912.00
2018-07-31T20:52:49.111Z,101908.00
2018-07-31T20:55:55.946Z,101924.00
2018-07-31T20:59:02.981Z,101935.00
2018-07-31T21:02:09.760Z,101945.00
2018-07-31T21:05:16.503Z,101949.00
2018-07-31T21:08:23.340Z,101949.00
2018-07-31T21:11:29.857Z,101951.00
2018-07-31T21:14:37.016Z,101955.00
2018-07-31T21:17:43.705Z,101955.00
2018-07-31T21:20:50.458Z,101961.00
2018-07-31T21:23:56.979Z,101967.00
2018-07-31T21:27:03.664Z,101973.00
2018-07-31T21:30:10.217Z,101975.00
2018-07-31T21:33:16.673Z,101977.00
2018-07-31T21:36:23.476Z,101980.00
2018-07-31T21:39:30.210Z,101986.00
2018-07-31T21:42:36.766Z,101984.00
2018-07-31T21:45:43.184Z,101988.00
2018-07-31T21:48:50.343Z,101990.00
2018-07-31T21:51:56.872Z,101990.00
2018-07-31T21:55:03.657Z,102000.00
2018-07-31T21:58:10.006Z,102004.00
2018-07-31T22:01:16.852Z,102006.00
2018-07-31T22:04:23.384Z,102006.00
2018-07-31T22:07:30.027Z,102000.00
2018-07-31T22:10:36.779Z,101998.00
2018-07-31T22:13:43.294Z,101998.00
2018-07-31T22:16:49.613Z,101994.00
2018-07-31T22:19:56.088Z,101996.00
2018-07-31T22:23:03.141Z,102004.00
2018-07-31T22:26:09.861Z,102008.00
2018-07-31T22:29:16.343Z,102004.00
2018-07-31T22:32:23.189Z,102014.00
2018-07-31T22:35:29.912Z,102020.00
2018-07-31T22:38:36.399Z,102026.00
2018-07-31T22:41:43.444Z,102027.00
2018-07-31T22:44:49.991Z,102026.00
2018-07-31T22:47:56.419Z,102010.00
2018-07-31T22:51:02.817Z,102006.00
2018-07-31T22:54:09.634Z,102012.00
2018-07-31T22:57:16.376Z,102012.00
2018-07-31T23:00:23.119Z,102020.00
2018-07-31T23:03:29.638Z,102020.00
2018-07-31T23:06:36.392Z,102012.00
2018-07-31T23:09:47.256Z,102018.00
2018-07-31T23:12:54.079Z,102012.00
2018-07-31T23:16:00.821Z,102018.00
2018-07-31T23:19:07.540Z,102022.00
2018-07-31T23:22:36.096Z,102012.00
2018-07-31T23:25:42.842Z,102014.00
2018-07-31T23:28:49.349Z,102018.00
2018-07-31T23:31:56.034Z,102020.00
2018-07-31T23:35:03.113Z,102022.00
2018-07-31T23:38:09.850Z,102024.00
2018-07-31T23:41:16.423Z,102014.00
2018-07-31T23:44:23.503Z,102020.00
2018-07-31T23:47:30.679Z,102027.00
2018-07-31T23:50:37.754Z,102020.00
2018-07-31T23:53:44.588Z,102020.00
2018-07-31T23:56:50.726Z,102024.00
2018-07-31T23:59:57.128Z,102027.00
